createdAt,value
2018-06-27T00:03:05.820Z,50.80
2018-06-27T00:08:09.120Z,50.80
2018-06-27T00:13:12.500Z,50.90
2018-06-27T00:18:16.185Z,50.90
2018-06-27T00:23:19.510Z,51.00
2018-06-27T00:28:22.815Z,51.10
2018-06-27T00:33:26.088Z,51.30
2018-06-27T00:38:29.500Z,51.30
2018-06-27T00:43:32.805Z,51.40
2018-06-27T00:48:36.061Z,51.50
2018-06-27T00:53:44.705Z,51.50
2018-06-27T00:58:47.954Z,51.50
2018-06-27T01:03:51.167Z,51.60
2018-06-27T01:08:54.567Z,51.80
2018-06-27T01:13:58.261Z,51.80
2018-06-27T01:19:01.769Z,51.80
2018-06-27T01:24:05.351Z,51.90
2018-06-27T01:29:08.650Z,51.90
2018-06-27T01:34:12.609Z,51.80
2018-06-27T01:39:16.143Z,51.80
2018-06-27T01:44:19.361Z,51.90
2018-06-27T01:49:22.767Z,52.00
2018-06-27T01:54:26.088Z,52.10
2018-06-27T01:59:29.505Z,52.10
2018-06-27T02:04:32.806Z,52.10
2018-06-27T02:09:36.329Z,52.20
2018-06-27T02:14:39.549Z,52.20
2018-06-27T02:19:42.775Z,52.20
2018-06-27T02:24:46.038Z,52.30
2018-06-27T02:29:49.465Z,52.30
2018-06-27T02:34:52.740Z,52.30
2018-06-27T02:39:57.016Z,52.30
2018-06-27T02:45:00.374Z,52.30
2018-06-27T02:50:04.138Z,52.20
2018-06-27T02:55:07.335Z,52.40
2018-06-27T03:00:13.255Z,52.40
2018-06-27T03:05:16.500Z,52.30
2018-06-27T03:10:20.049Z,52.30
2018-06-27T03:15:23.362Z,52.40
2018-06-27T03:20:26.906Z,52.20
2018-06-27T03:25:30.148Z,52.20
2018-06-27T03:30:33.399Z,52.20
2018-06-27T03:35:36.684Z,52.10
2018-06-27T03:40:39.916Z,52.20
2018-06-27T03:45:43.161Z,52.30
2018-06-27T03:50:46.371Z,52.10
2018-06-27T03:55:50.187Z,52.20
2018-06-27T04:00:53.689Z,52.20
2018-06-27T04:05:56.931Z,52.20
2018-06-27T04:11:00.112Z,52.10
2018-06-27T04:16:03.412Z,52.10
2018-06-27T04:21:06.761Z,52.00
2018-06-27T04:26:09.980Z,52.00
2018-06-27T04:31:13.828Z,51.90
2018-06-27T04:36:17.143Z,51.90
2018-06-27T04:41:20.451Z,51.70
2018-06-27T04:46:23.831Z,51.80
2018-06-27T04:51:27.182Z,51.70
2018-06-27T04:56:30.447Z,51.70
2018-06-27T05:01:34.115Z,51.70
2018-06-27T05:06:37.418Z,51.50
2018-06-27T05:11:40.809Z,51.40
2018-06-27T05:16:43.983Z,51.30
2018-06-27T05:21:47.271Z,51.20
2018-06-27T05:31:54.668Z,51.10
2018-06-27T05:36:58.162Z,51.00
2018-06-27T05:42:01.578Z,51.10
2018-06-27T05:52:08.190Z,51.00
2018-06-27T05:57:13.143Z,50.80
2018-06-27T06:02:16.936Z,50.80
2018-06-27T06:07:20.240Z,50.70
2018-06-27T06:12:24.182Z,50.60
2018-06-27T06:17:27.439Z,50.60
2018-06-27T06:22:30.753Z,50.70
2018-06-27T06:27:34.266Z,50.70
2018-06-27T06:32:38.067Z,50.40
2018-06-27T06:37:41.797Z,50.40
2018-06-27T06:42:45.433Z,50.30
2018-06-27T06:47:48.904Z,50.30
2018-06-27T06:52:52.530Z,50.10
2018-06-27T06:57:55.859Z,49.90
2018-06-27T07:02:59.252Z,50.10
2018-06-27T07:08:03.282Z,50.60
2018-06-27T07:13:06.719Z,50.30
2018-06-27T07:18:09.971Z,50.30
2018-06-27T07:23:13.229Z,50.30
2018-06-27T07:28:17.076Z,50.20
2018-06-27T07:33:20.685Z,50.30
2018-06-27T07:38:24.430Z,50.30
2018-06-27T07:43:27.860Z,50.20
2018-06-27T07:48:33.694Z,50.70
2018-06-27T07:53:37.024Z,50.20
2018-06-27T07:58:40.878Z,50.20
2018-06-27T08:03:45.790Z,50.20
2018-06-27T08:08:49.446Z,50.00
2018-06-27T08:13:52.984Z,50.30
2018-06-27T08:18:56.206Z,50.30
2018-06-27T08:23:59.523Z,50.30
2018-06-27T08:29:02.737Z,50.20
2018-06-27T08:34:06.174Z,50.30
2018-06-27T08:39:10.647Z,50.30
2018-06-27T08:44:14.848Z,50.20
2018-06-27T08:49:18.192Z,50.10
2018-06-27T08:54:21.512Z,50.10
2018-06-27T08:59:24.758Z,50.20
2018-06-27T09:04:29.487Z,50.30
2018-06-27T09:09:33.121Z,50.50
2018-06-27T09:14:36.459Z,50.30
2018-06-27T09:19:39.748Z,50.40
2018-06-27T09:24:43.839Z,50.30
2018-06-27T09:29:47.195Z,50.40
2018-06-27T09:34:50.854Z,50.40
2018-06-27T09:39:54.188Z,50.50
2018-06-27T09:44:57.486Z,50.70
2018-06-27T09:50:02.853Z,50.80
2018-06-27T09:55:06.535Z,50.80
2018-06-27T10:00:15.311Z,50.90
2018-06-27T10:05:18.608Z,51.00
2018-06-27T10:10:22.104Z,51.00
2018-06-27T10:15:25.452Z,51.00
2018-06-27T10:20:29.028Z,51.10
2018-06-27T10:25:32.251Z,51.10
2018-06-27T10:30:36.192Z,51.10
2018-06-27T10:35:39.496Z,51.10
2018-06-27T10:40:42.960Z,51.10
2018-06-27T10:45:46.505Z,51.10
2018-06-27T10:50:49.808Z,51.10
2018-06-27T10:55:52.997Z,51.10
2018-06-27T11:00:57.905Z,50.50
2018-06-27T11:06:01.668Z,46.80
2018-06-27T11:11:04.954Z,44.70
2018-06-27T11:16:08.477Z,44.80
2018-06-27T11:21:11.747Z,43.50
2018-06-27T11:26:15.410Z,44.60
2018-06-27T11:31:18.985Z,43.50
2018-06-27T11:36:22.372Z,43.00
2018-06-27T11:41:25.761Z,42.80
2018-06-27T11:46:29.350Z,40.80
2018-06-27T11:51:32.688Z,41.30
2018-06-27T11:56:36.093Z,41.30
2018-06-27T12:01:39.368Z,41.00
2018-06-27T12:06:43.058Z,41.20
2018-06-27T12:11:47.732Z,41.00
2018-06-27T12:16:52.773Z,40.20
2018-06-27T12:21:56.287Z,40.50
2018-06-27T12:26:59.571Z,39.60
2018-06-27T12:32:03.199Z,40.90
2018-06-27T12:37:06.537Z,40.40
2018-06-27T12:42:10.210Z,39.50
2018-06-27T12:47:14.616Z,39.90
2018-06-27T12:52:18.860Z,39.30
2018-06-27T12:57:22.148Z,39.20
2018-06-27T13:02:25.588Z,38.90
2018-06-27T13:07:28.824Z,38.70
2018-06-27T13:12:32.452Z,38.60
2018-06-27T13:17:35.752Z,38.70
2018-06-27T13:22:39.034Z,38.60
2018-06-27T13:27:42.348Z,38.70
2018-06-27T13:32:45.604Z,38.10
2018-06-27T13:37:49.618Z,38.30
2018-06-27T13:42:53.032Z,38.50
2018-06-27T13:47:57.093Z,38.10
2018-06-27T13:53:00.484Z,38.50
2018-06-27T13:58:03.976Z,38.30
2018-06-27T14:03:07.877Z,38.40
2018-06-27T14:08:11.163Z,38.20
2018-06-27T14:13:14.377Z,37.80
2018-06-27T14:18:17.784Z,37.90
2018-06-27T14:23:21.121Z,37.60
2018-06-27T14:28:24.726Z,37.30
2018-06-27T14:33:28.282Z,37.30
2018-06-27T14:38:31.536Z,38.00
2018-06-27T14:43:35.372Z,38.10
2018-06-27T14:48:38.613Z,38.10
2018-06-27T14:53:41.878Z,38.10
2018-06-27T14:58:45.131Z,38.40
2018-06-27T15:03:48.593Z,38.60
2018-06-27T15:08:52.530Z,38.90
2018-06-27T15:13:55.779Z,39.20
2018-06-27T15:18:59.115Z,39.40
2018-06-27T15:24:02.423Z,39.60
2018-06-27T15:29:05.712Z,39.80
2018-06-27T15:34:08.951Z,40.00
2018-06-27T15:39:12.400Z,40.30
2018-06-27T15:44:16.305Z,40.60
2018-06-27T15:49:19.816Z,40.90
2018-06-27T15:54:23.078Z,41.10
2018-06-27T15:59:26.595Z,41.40
2018-06-27T16:04:29.858Z,41.60
2018-06-27T16:09:33.193Z,41.90
2018-06-27T16:14:37.718Z,42.10
2018-06-27T16:19:41.954Z,42.30
2018-06-27T16:24:47.947Z,42.50
2018-06-27T16:29:53.162Z,42.60
2018-06-27T16:34:57.645Z,42.70
2018-06-27T16:40:02.105Z,42.80
2018-06-27T16:45:06.285Z,43.00
2018-06-27T16:50:10.175Z,43.10
2018-06-27T16:55:13.483Z,43.10
2018-06-27T17:00:16.728Z,43.30
2018-06-27T17:05:20.602Z,43.40
2018-06-27T17:10:24.085Z,43.50
2018-06-27T17:15:27.570Z,43.60
2018-06-27T17:20:30.850Z,43.60
2018-06-27T17:25:34.681Z,43.70
2018-06-27T17:30:37.996Z,43.60
2018-06-27T17:35:41.332Z,43.70
2018-06-27T17:40:44.777Z,43.70
2018-06-27T17:45:48.213Z,43.70
2018-06-27T17:50:52.733Z,43.80
2018-06-27T17:55:56.052Z,43.80
2018-06-27T18:00:59.482Z,42.10
2018-06-27T18:06:03.195Z,42.10
2018-06-27T18:11:06.693Z,41.00
2018-06-27T18:16:10.135Z,41.00
2018-06-27T18:21:13.414Z,39.40
2018-06-27T18:26:16.681Z,39.80
2018-06-27T18:31:20.051Z,38.80
2018-06-27T18:36:23.363Z,40.50
2018-06-27T18:41:26.619Z,42.10
2018-06-27T18:46:31.087Z,41.50
2018-06-27T18:51:34.373Z,40.00
2018-06-27T18:56:38.137Z,41.00
2018-06-27T19:01:41.672Z,40.10
2018-06-27T19:06:45.069Z,39.70
2018-06-27T19:11:48.659Z,40.40
2018-06-27T19:16:52.029Z,41.20
2018-06-27T19:21:56.250Z,40.80
2018-06-27T19:26:59.577Z,40.50
2018-06-27T19:32:02.993Z,41.80
2018-06-27T19:37:07.480Z,40.40
2018-06-27T19:42:10.904Z,40.40
2018-06-27T19:47:14.171Z,41.70
2018-06-27T19:52:17.517Z,42.10
2018-06-27T19:57:21.721Z,43.00
2018-06-27T20:02:25.548Z,44.80
2018-06-27T20:07:29.021Z,43.80
2018-06-27T20:12:32.470Z,43.50
2018-06-27T20:17:36.490Z,43.40
2018-06-27T20:22:40.035Z,43.40
2018-06-27T20:27:43.289Z,43.90
2018-06-27T20:32:46.806Z,43.80
2018-06-27T20:37:51.675Z,43.80
2018-06-27T20:42:55.444Z,43.90
2018-06-27T20:47:59.090Z,43.90
2018-06-27T20:53:02.838Z,43.90
2018-06-27T20:58:06.397Z,44.00
2018-06-27T21:03:09.728Z,44.10
2018-06-27T21:08:13.357Z,44.20
2018-06-27T21:13:16.881Z,44.20
2018-06-27T21:18:20.187Z,44.30
2018-06-27T21:23:23.605Z,44.40
2018-06-27T21:28:28.037Z,44.40
2018-06-27T21:33:31.330Z,44.50
2018-06-27T21:38:34.606Z,44.50
2018-06-27T21:43:38.621Z,44.60
2018-06-27T21:53:45.408Z,44.70
2018-06-27T21:58:49.372Z,44.80
2018-06-27T22:03:53.263Z,44.90
2018-06-27T22:08:56.560Z,44.90
2018-06-27T22:13:59.802Z,45.00
2018-06-27T22:19:04.017Z,45.00
2018-06-27T22:24:07.295Z,45.10
2018-06-27T22:29:10.753Z,45.10
2018-06-27T22:34:14.200Z,45.10
2018-06-27T22:39:17.467Z,45.30
2018-06-27T22:44:20.919Z,45.30
2018-06-27T22:49:24.481Z,45.30
2018-06-27T22:54:27.760Z,45.40
2018-06-27T22:59:30.970Z,45.40
2018-06-27T23:04:34.294Z,45.50
2018-06-27T23:09:37.551Z,45.50
2018-06-27T23:14:41.073Z,45.60
2018-06-27T23:19:44.378Z,45.70
2018-06-27T23:24:47.670Z,45.70
2018-06-27T23:29:50.967Z,45.70
2018-06-27T23:34:54.362Z,45.70
2018-06-27T23:39:57.879Z,46.30
2018-06-27T23:45:01.921Z,47.70
2018-06-27T23:50:05.347Z,48.20
2018-06-27T23:55:08.789Z,48.50
